New Haven, Iowa
Current Conditions -  °F | °C
As of 5:55 PM on Wednesday 22 Oct 2014 (Local Time) from KCCY Reporting Station
Overcast Overcast  
Wind Chill: 57°   Ceiling: 6000
Heat Index: 57°   Visibility: 10mi
Dew Point: 39°   Wind: 13mph
Humidity: 51%   Direction: 150°SSE
Pressure: 30.13"   Gusts: 22mph
Location:  43.2938°N, 92.8135°W
Report Text: KCCY 222255Z AUTO 15011G19KT 10SM FEW035 BKN060 OVC090 14/04 A3013 RMK AO2
Loading
Personal Weather Stations






























Interactive Weather Map
Tropical Storm Tracking
New forecast layout! Learn more

10-Day Weather Forecast

Advertisements
Track Severe Weather on mobile